sensor_id;sensor_type;location;lat;lon;timestamp;pressure;altitude;pressure_sealevel;temperature;humidity
10079;BME280;5078;42.544;22.966;2022-11-12T00:00:11;95186.00;;;7.83;100.00
10079;BME280;5078;42.544;22.966;2022-11-12T00:02:38;95186.25;;;7.80;100.00
10079;BME280;5078;42.544;22.966;2022-11-12T00:05:05;95181.72;;;7.70;100.00
10079;BME280;5078;42.544;22.966;2022-11-12T00:07:32;95186.38;;;7.78;100.00
10079;BME280;5078;42.544;22.966;2022-11-12T00:09:59;95178.19;;;7.81;100.00
10079;BME280;5078;42.544;22.966;2022-11-12T00:12:27;95174.09;;;7.88;100.00
10079;BME280;5078;42.544;22.966;2022-11-12T00:14:54;95168.81;;;7.88;100.00
10079;BME280;5078;42.544;22.966;2022-11-12T00:17:20;95166.44;;;7.85;100.00
10079;BME280;5078;42.544;22.966;2022-11-12T00:19:47;95175.50;;;7.71;100.00
10079;BME280;5078;42.544;22.966;2022-11-12T00:22:14;95172.88;;;7.71;100.00
10079;BME280;5078;42.544;22.966;2022-11-12T00:24:40;95177.28;;;7.71;100.00
10079;BME280;5078;42.544;22.966;2022-11-12T00:27:07;95188.09;;;7.68;100.00
10079;BME280;5078;42.544;22.966;2022-11-12T00:29:35;95180.53;;;7.74;100.00
10079;BME280;5078;42.544;22.966;2022-11-12T00:32:03;95184.00;;;7.75;100.00
10079;BME280;5078;42.544;22.966;2022-11-12T00:34:30;95193.53;;;7.66;100.00
10079;BME280;5078;42.544;22.966;2022-11-12T00:36:57;95191.09;;;7.63;100.00
10079;BME280;5078;42.544;22.966;2022-11-12T00:39:24;95181.47;;;7.73;100.00
10079;BME280;5078;42.544;22.966;2022-11-12T00:41:51;95193.13;;;7.71;100.00
10079;BME280;5078;42.544;22.966;2022-11-12T00:44:17;95188.34;;;7.65;100.00
10079;BME280;5078;42.544;22.966;2022-11-12T00:46:46;95186.06;;;7.71;100.00
10079;BME280;5078;42.544;22.966;2022-11-12T00:49:14;95183.75;;;7.78;100.00
10079;BME280;5078;42.544;22.966;2022-11-12T00:51:41;95181.34;;;7.75;100.00
10079;BME280;5078;42.544;22.966;2022-11-12T00:54:10;95175.09;;;7.76;100.00
10079;BME280;5078;42.544;22.966;2022-11-12T00:56:37;95176.41;;;7.82;100.00
10079;BME280;5078;42.544;22.966;2022-11-12T00:59:04;95171.59;;;7.87;100.00
10079;BME280;5078;42.544;22.966;2022-11-12T01:01:31;95170.16;;;7.83;100.00
10079;BME280;5078;42.544;22.966;2022-11-12T01:04:00;95166.34;;;7.75;100.00
10079;BME280;5078;42.544;22.966;2022-11-12T01:06:27;95160.94;;;7.77;100.00
10079;BME280;5078;42.544;22.966;2022-11-12T01:08:54;95158.88;;;7.81;100.00
10079;BME280;5078;42.544;22.966;2022-11-12T01:11:23;95157.59;;;7.75;100.00
10079;BME280;5078;42.544;22.966;2022-11-12T01:13:53;95155.22;;;7.72;100.00
10079;BME280;5078;42.544;22.966;2022-11-12T01:16:22;95161.22;;;7.74;100.00
10079;BME280;5078;42.544;22.966;2022-11-12T01:18:52;95154.94;;;7.75;100.00
10079;BME280;5078;42.544;22.966;2022-11-12T01:21:21;95143.41;;;7.76;100.00
10079;BME280;5078;42.544;22.966;2022-11-12T01:23:48;95143.31;;;7.77;100.00
10079;BME280;5078;42.544;22.966;2022-11-12T01:26:17;95124.28;;;7.84;100.00
10079;BME280;5078;42.544;22.966;2022-11-12T01:28:45;95137.66;;;7.82;100.00
10079;BME280;5078;42.544;22.966;2022-11-12T01:31:16;95140.13;;;7.84;100.00
10079;BME280;5078;42.544;22.966;2022-11-12T01:33:44;95153.28;;;7.74;100.00
10079;BME280;5078;42.544;22.966;2022-11-12T01:36:12;95153.28;;;7.74;100.00
10079;BME280;5078;42.544;22.966;2022-11-12T01:38:45;95136.22;;;7.78;100.00
10079;BME280;5078;42.544;22.966;2022-11-12T01:41:14;95137.19;;;7.77;100.00
10079;BME280;5078;42.544;22.966;2022-11-12T01:43:41;95130.53;;;7.62;100.00
10079;BME280;5078;42.544;22.966;2022-11-12T01:46:19;95131.22;;;7.64;100.00
10079;BME280;5078;42.544;22.966;2022-11-12T01:48:53;95130.28;;;7.65;100.00
10079;BME280;5078;42.544;22.966;2022-11-12T01:51:22;95124.09;;;7.54;100.00
10079;BME280;5078;42.544;22.966;2022-11-12T01:53:54;95126.38;;;7.48;100.00
10079;BME280;5078;42.544;22.966;2022-11-12T01:56:23;95123.41;;;7.41;100.00
10079;BME280;5078;42.544;22.966;2022-11-12T01:58:55;95117.03;;;7.44;100.00
10079;BME280;5078;42.544;22.966;2022-11-12T02:01:24;95122.66;;;7.50;100.00
10079;BME280;5078;42.544;22.966;2022-11-12T02:03:51;95126.72;;;7.54;100.00
10079;BME280;5078;42.544;22.966;2022-11-12T02:06:18;95127.66;;;7.53;100.00
10079;BME280;5078;42.544;22.966;2022-11-12T02:08:46;95125.63;;;7.57;100.00
10079;BME280;5078;42.544;22.966;2022-11-12T02:11:16;95122.16;;;7.56;100.00
10079;BME280;5078;42.544;22.966;2022-11-12T02:13:45;95128.59;;;7.64;100.00
10079;BME280;5078;42.544;22.966;2022-11-12T02:16:31;95131.22;;;7.64;100.00
10079;BME280;5078;42.544;22.966;2022-11-12T02:18:59;95126.66;;;7.66;100.00
10079;BME280;5078;42.544;22.966;2022-11-12T02:21:27;95117.28;;;7.73;100.00
10079;BME280;5078;42.544;22.966;2022-11-12T02:24:01;95118.25;;;7.72;100.00
10079;BME280;5078;42.544;22.966;2022-11-12T02:26:31;95120.25;;;7.80;100.00
10079;BME280;5078;42.544;22.966;2022-11-12T02:28:59;95115.09;;;7.78;100.00
10079;BME280;5078;42.544;22.966;2022-11-12T02:31:26;95117.88;;;7.76;100.00
10079;BME280;5078;42.544;22.966;2022-11-12T02:33:54;95116.25;;;7.85;100.00
10079;BME280;5078;42.544;22.966;2022-11-12T02:36:21;95117.00;;;7.76;100.00
10079;BME280;5078;42.544;22.966;2022-11-12T02:38:49;95109.81;;;7.78;100.00
10079;BME280;5078;42.544;22.966;2022-11-12T02:41:16;95108.66;;;7.71;100.00
10079;BME280;5078;42.544;22.966;2022-11-12T02:43:43;95114.19;;;7.68;100.00
10079;BME280;5078;42.544;22.966;2022-11-12T02:46:12;95105.44;;;7.67;100.00
10079;BME280;5078;42.544;22.966;2022-11-12T02:48:55;95105.56;;;7.66;100.00
10079;BME280;5078;42.544;22.966;2022-11-12T02:51:21;95098.00;;;7.61;100.00
10079;BME280;5078;42.544;22.966;2022-11-12T02:53:49;95113.09;;;7.70;100.00
10079;BME280;5078;42.544;22.966;2022-11-12T02:56:16;95115.63;;;7.72;100.00
10079;BME280;5078;42.544;22.966;2022-11-12T02:58:43;95113.69;;;7.74;100.00
10079;BME280;5078;42.544;22.966;2022-11-12T03:01:09;95116.72;;;7.69;100.00
10079;BME280;5078;42.544;22.966;2022-11-12T03:03:36;95115.88;;;7.69;100.00
10079;BME280;5078;42.544;22.966;2022-11-12T03:06:03;95116.09;;;7.66;100.00
10079;BME280;5078;42.544;22.966;2022-11-12T03:08:30;95116.44;;;7.72;100.00
10079;BME280;5078;42.544;22.966;2022-11-12T03:10:58;95111.09;;;7.63;100.00
10079;BME280;5078;42.544;22.966;2022-11-12T03:13:31;95127.38;;;7.68;100.00
10079;BME280;5078;42.544;22.966;2022-11-12T03:15:58;95117.81;;;7.67;100.00
10079;BME280;5078;42.544;22.966;2022-11-12T03:18:29;95116.97;;;7.66;100.00
10079;BME280;5078;42.544;22.966;2022-11-12T03:20:56;95119.47;;;7.68;100.00
10079;BME280;5078;42.544;22.966;2022-11-12T03:23:25;95117.81;;;7.67;100.00
10079;BME280;5078;42.544;22.966;2022-11-12T03:25:52;95115.34;;;7.54;100.00
10079;BME280;5078;42.544;22.966;2022-11-12T03:28:20;95113.34;;;7.35;100.00
10079;BME280;5078;42.544;22.966;2022-11-12T03:30:48;95105.78;;;7.42;100.00
10079;BME280;5078;42.544;22.966;2022-11-12T03:33:15;95111.06;;;7.42;100.00
10079;BME280;5078;42.544;22.966;2022-11-12T03:35:41;95106.09;;;7.48;100.00
10079;BME280;5078;42.544;22.966;2022-11-12T03:38:08;95097.28;;;7.38;100.00
10079;BME280;5078;42.544;22.966;2022-11-12T03:40:35;95094.53;;;7.40;100.00
10079;BME280;5078;42.544;22.966;2022-11-12T03:43:02;95098.09;;;7.39;100.00
10079;BME280;5078;42.544;22.966;2022-11-12T03:45:30;95091.22;;;7.26;100.00
10079;BME280;5078;42.544;22.966;2022-11-12T03:47:57;95104.16;;;7.29;100.00
10079;BME280;5078;42.544;22.966;2022-11-12T03:50:26;95109.34;;;7.20;100.00
10079;BME280;5078;42.544;22.966;2022-11-12T03:52:55;95114.63;;;7.08;100.00
10079;BME280;5078;42.544;22.966;2022-11-12T03:55:23;95115.69;;;7.17;100.00
10079;BME280;5078;42.544;22.966;2022-11-12T03:57:50;95115.09;;;7.13;100.00
10079;BME280;5078;42.544;22.966;2022-11-12T04:00:18;95111.31;;;6.95;100.00
10079;BME280;5078;42.544;22.966;2022-11-12T04:02:47;95132.41;;;7.06;100.00
10079;BME280;5078;42.544;22.966;2022-11-12T04:05:13;95125.78;;;7.12;100.00
10079;BME280;5078;42.544;22.966;2022-11-12T04:07:58;95121.09;;;7.16;100.00
10079;BME280;5078;42.544;22.966;2022-11-12T04:10:44;95114.44;;;6.89;100.00
10079;BME280;5078;42.544;22.966;2022-11-12T04:13:10;95108.69;;;6.84;100.00
10079;BME280;5078;42.544;22.966;2022-11-12T04:15:57;95104.63;;;6.80;100.00
10079;BME280;5078;42.544;22.966;2022-11-12T04:18:44;95107.63;;;6.86;100.00
10079;BME280;5078;42.544;22.966;2022-11-12T04:21:31;95102.34;;;6.86;100.00
10079;BME280;5078;42.544;22.966;2022-11-12T04:24:24;95103.66;;;6.81;100.00
10079;BME280;5078;42.544;22.966;2022-11-12T04:27:12;95107.38;;;6.78;100.00
10079;BME280;5078;42.544;22.966;2022-11-12T04:29:39;95091.22;;;6.72;100.00
10079;BME280;5078;42.544;22.966;2022-11-12T04:32:24;95085.69;;;6.63;100.00
10079;BME280;5078;42.544;22.966;2022-11-12T04:34:52;95088.91;;;6.78;100.00
10079;BME280;5078;42.544;22.966;2022-11-12T04:37:19;95096.50;;;6.72;100.00
10079;BME280;5078;42.544;22.966;2022-11-12T04:39:48;95099.81;;;6.74;100.00
10079;BME280;5078;42.544;22.966;2022-11-12T04:42:15;95098.41;;;6.58;100.00
10079;BME280;5078;42.544;22.966;2022-11-12T04:44:59;95105.13;;;6.62;100.00
10079;BME280;5078;42.544;22.966;2022-11-12T04:47:32;95102.00;;;6.57;100.00
10079;BME280;5078;42.544;22.966;2022-11-12T04:50:01;95103.69;;;6.58;100.00
10079;BME280;5078;42.544;22.966;2022-11-12T04:52:29;95101.88;;;6.70;100.00
10079;BME280;5078;42.544;22.966;2022-11-12T04:54:56;95107.63;;;6.75;100.00
10079;BME280;5078;42.544;22.966;2022-11-12T04:57:23;95096.22;;;6.86;100.00
10079;BME280;5078;42.544;22.966;2022-11-12T04:59:50;95095.88;;;6.68;100.00
10079;BME280;5078;42.544;22.966;2022-11-12T05:02:17;95088.22;;;6.65;100.00
10079;BME280;5078;42.544;22.966;2022-11-12T05:04:44;95084.75;;;6.53;100.00
10079;BME280;5078;42.544;22.966;2022-11-12T05:07:13;95085.25;;;6.47;100.00
10079;BME280;5078;42.544;22.966;2022-11-12T05:09:40;95068.47;;;6.48;100.00
10079;BME280;5078;42.544;22.966;2022-11-12T05:12:07;95084.28;;;6.48;100.00
10079;BME280;5078;42.544;22.966;2022-11-12T05:14:34;95087.41;;;6.42;100.00
10079;BME280;5078;42.544;22.966;2022-11-12T05:17:01;95089.19;;;6.41;100.00
10079;BME280;5078;42.544;22.966;2022-11-12T05:19:28;95092.78;;;6.40;100.00
10079;BME280;5078;42.544;22.966;2022-11-12T05:21:54;95102.25;;;6.20;100.00
10079;BME280;5078;42.544;22.966;2022-11-12T05:24:36;95106.31;;;6.13;100.00
10079;BME280;5078;42.544;22.966;2022-11-12T05:27:05;95095.19;;;6.10;100.00
10079;BME280;5078;42.544;22.966;2022-11-12T05:29:32;95115.16;;;6.23;100.00
10079;BME280;5078;42.544;22.966;2022-11-12T05:31:59;95124.72;;;6.13;100.00
10079;BME280;5078;42.544;22.966;2022-11-12T05:34:26;95136.72;;;6.29;100.00
10079;BME280;5078;42.544;22.966;2022-11-12T05:36:53;95123.22;;;6.22;100.00
10079;BME280;5078;42.544;22.966;2022-11-12T05:39:20;95126.44;;;6.25;100.00
10079;BME280;5078;42.544;22.966;2022-11-12T05:41:48;95122.72;;;6.28;100.00
10079;BME280;5078;42.544;22.966;2022-11-12T05:44:15;95135.03;;;6.16;100.00
10079;BME280;5078;42.544;22.966;2022-11-12T05:46:41;95130.03;;;6.24;100.00
10079;BME280;5078;42.544;22.966;2022-11-12T05:49:08;95119.34;;;6.26;100.00
10079;BME280;5078;42.544;22.966;2022-11-12T05:51:35;95133.63;;;6.35;100.00
10079;BME280;5078;42.544;22.966;2022-11-12T05:54:03;95134.84;;;6.42;100.00
10079;BME280;5078;42.544;22.966;2022-11-12T05:56:30;95139.84;;;6.45;100.00
10079;BME280;5078;42.544;22.966;2022-11-12T05:58:59;95144.88;;;6.70;100.00
10079;BME280;5078;42.544;22.966;2022-11-12T06:01:26;95141.88;;;6.75;100.00
10079;BME280;5078;42.544;22.966;2022-11-12T06:03:54;95147.06;;;6.77;100.00
10079;BME280;5078;42.544;22.966;2022-11-12T06:06:20;95151.38;;;6.66;100.00
10079;BME280;5078;42.544;22.966;2022-11-12T06:08:47;95159.97;;;6.68;100.00
10079;BME280;5078;42.544;22.966;2022-11-12T06:11:14;95154.09;;;6.76;100.00
10079;BME280;5078;42.544;22.966;2022-11-12T06:13:41;95149.19;;;6.60;100.00
10079;BME280;5078;42.544;22.966;2022-11-12T06:16:09;95159.00;;;6.81;100.00
10079;BME280;5078;42.544;22.966;2022-11-12T06:18:36;95157.09;;;6.94;100.00
10079;BME280;5078;42.544;22.966;2022-11-12T06:21:04;95154.94;;;6.99;100.00
10079;BME280;5078;42.544;22.966;2022-11-12T06:23:49;95157.22;;;6.93;100.00
10079;BME280;5078;42.544;22.966;2022-11-12T06:26:20;95152.28;;;6.88;100.00
10079;BME280;5078;42.544;22.966;2022-11-12T06:28:47;95161.28;;;6.97;100.00
10079;BME280;5078;42.544;22.966;2022-11-12T06:31:16;95162.72;;;7.01;100.00
10079;BME280;5078;42.544;22.966;2022-11-12T06:33:44;95170.25;;;7.05;100.00
10079;BME280;5078;42.544;22.966;2022-11-12T06:36:31;95153.81;;;7.13;100.00
10079;BME280;5078;42.544;22.966;2022-11-12T06:38:58;95157.91;;;7.17;100.00
10079;BME280;5078;42.544;22.966;2022-11-12T06:41:24;95166.53;;;7.19;100.00
10079;BME280;5078;42.544;22.966;2022-11-12T06:43:51;95160.59;;;7.38;100.00
10079;BME280;5078;42.544;22.966;2022-11-12T06:46:19;95163.59;;;7.33;100.00
10079;BME280;5078;42.544;22.966;2022-11-12T06:48:48;95161.09;;;7.32;100.00
10079;BME280;5078;42.544;22.966;2022-11-12T06:51:16;95161.34;;;7.29;100.00
10079;BME280;5078;42.544;22.966;2022-11-12T06:53:44;95168.13;;;7.43;100.00
10079;BME280;5078;42.544;22.966;2022-11-12T06:56:11;95170.03;;;7.52;100.00
10079;BME280;5078;42.544;22.966;2022-11-12T06:58:38;95181.31;;;7.54;100.00
10079;BME280;5078;42.544;22.966;2022-11-12T07:01:10;95181.38;;;7.64;100.00
10079;BME280;5078;42.544;22.966;2022-11-12T07:03:40;95176.50;;;7.59;100.00
10079;BME280;5078;42.544;22.966;2022-11-12T07:06:09;95160.84;;;7.46;100.00
10079;BME280;5078;42.544;22.966;2022-11-12T07:08:36;95185.50;;;7.56;100.00
10079;BME280;5078;42.544;22.966;2022-11-12T07:11:04;95181.09;;;7.78;100.00
10079;BME280;5078;42.544;22.966;2022-11-12T07:13:31;95172.69;;;8.26;100.00
10079;BME280;5078;42.544;22.966;2022-11-12T07:16:07;95166.69;;;8.66;100.00
10079;BME280;5078;42.544;22.966;2022-11-12T07:18:34;95173.38;;;8.91;100.00
10079;BME280;5078;42.544;22.966;2022-11-12T07:21:04;95165.22;;;9.23;100.00
10079;BME280;5078;42.544;22.966;2022-11-12T07:23:32;95173.81;;;9.66;100.00
10079;BME280;5078;42.544;22.966;2022-11-12T07:26:02;95156.75;;;9.29;100.00
10079;BME280;5078;42.544;22.966;2022-11-12T07:28:29;95169.34;;;9.47;100.00
10079;BME280;5078;42.544;22.966;2022-11-12T07:30:57;95174.91;;;9.63;99.73
10079;BME280;5078;42.544;22.966;2022-11-12T07:33:25;95163.53;;;9.92;97.12
10079;BME280;5078;42.544;22.966;2022-11-12T07:35:56;95164.06;;;10.15;94.75
10079;BME280;5078;42.544;22.966;2022-11-12T07:38:25;95153.59;;;10.33;93.45
10079;BME280;5078;42.544;22.966;2022-11-12T07:40:57;95161.81;;;10.10;92.48
10079;BME280;5078;42.544;22.966;2022-11-12T07:43:24;95159.31;;;9.60;91.18
10079;BME280;5078;42.544;22.966;2022-11-12T07:45:51;95144.53;;;9.48;91.69
10079;BME280;5078;42.544;22.966;2022-11-12T07:48:18;95143.22;;;9.23;93.11
10079;BME280;5078;42.544;22.966;2022-11-12T07:50:44;95139.41;;;8.96;94.83
10079;BME280;5078;42.544;22.966;2022-11-12T07:53:11;95129.94;;;8.94;95.32
10079;BME280;5078;42.544;22.966;2022-11-12T07:55:39;95143.97;;;8.84;96.00
10079;BME280;5078;42.544;22.966;2022-11-12T07:58:08;95139.25;;;8.57;95.26
10079;BME280;5078;42.544;22.966;2022-11-12T08:00:34;95141.72;;;8.49;96.03
10079;BME280;5078;42.544;22.966;2022-11-12T08:03:01;95141.34;;;8.54;94.33
10079;BME280;5078;42.544;22.966;2022-11-12T08:05:28;95132.38;;;8.45;93.85
10079;BME280;5078;42.544;22.966;2022-11-12T08:07:54;95147.00;;;8.49;93.95
10079;BME280;5078;42.544;22.966;2022-11-12T08:10:22;95145.91;;;8.52;94.61
10079;BME280;5078;42.544;22.966;2022-11-12T08:12:50;95149.44;;;8.62;93.77
10079;BME280;5078;42.544;22.966;2022-11-12T08:15:16;95145.47;;;8.77;93.05
10079;BME280;5078;42.544;22.966;2022-11-12T08:17:43;95136.94;;;9.14;92.67
10079;BME280;5078;42.544;22.966;2022-11-12T08:20:10;95143.91;;;9.15;90.56
10079;BME280;5078;42.544;22.966;2022-11-12T08:22:37;95147.09;;;9.09;89.89
10079;BME280;5078;42.544;22.966;2022-11-12T08:25:05;95155.19;;;9.17;89.86
10079;BME280;5078;42.544;22.966;2022-11-12T08:27:32;95151.16;;;9.23;89.74
10079;BME280;5078;42.544;22.966;2022-11-12T08:30:00;95155.59;;;9.13;89.17
10079;BME280;5078;42.544;22.966;2022-11-12T08:32:27;95149.41;;;8.93;88.37
10079;BME280;5078;42.544;22.966;2022-11-12T08:34:53;95159.66;;;8.76;91.67
10079;BME280;5078;42.544;22.966;2022-11-12T08:37:20;95158.13;;;8.83;91.56
10079;BME280;5078;42.544;22.966;2022-11-12T08:39:47;95164.25;;;9.15;89.50
10079;BME280;5078;42.544;22.966;2022-11-12T08:42:13;95154.53;;;9.25;89.49
10079;BME280;5078;42.544;22.966;2022-11-12T08:44:48;95170.72;;;9.32;88.27
10079;BME280;5078;42.544;22.966;2022-11-12T08:47:16;95177.06;;;9.19;88.61
10079;BME280;5078;42.544;22.966;2022-11-12T08:49:43;95174.72;;;9.26;88.73
10079;BME280;5078;42.544;22.966;2022-11-12T08:52:10;95175.59;;;9.36;87.97
10079;BME280;5078;42.544;22.966;2022-11-12T08:54:36;95174.59;;;9.37;87.67
10079;BME280;5078;42.544;22.966;2022-11-12T08:57:03;95176.84;;;9.42;86.69
10079;BME280;5078;42.544;22.966;2022-11-12T08:59:30;95180.06;;;9.45;87.34
10079;BME280;5078;42.544;22.966;2022-11-12T09:02:00;95181.75;;;9.76;86.35
10079;BME280;5078;42.544;22.966;2022-11-12T09:04:39;95175.66;;;10.04;85.99
10079;BME280;5078;42.544;22.966;2022-11-12T09:07:06;95185.13;;;9.78;84.41
10079;BME280;5078;42.544;22.966;2022-11-12T09:09:33;95165.72;;;9.58;84.72
10079;BME280;5078;42.544;22.966;2022-11-12T09:12:02;95162.09;;;9.39;85.96
10079;BME280;5078;42.544;22.966;2022-11-12T09:14:28;95164.91;;;9.67;85.55
10079;BME280;5078;42.544;22.966;2022-11-12T09:16:57;95169.34;;;9.86;85.49
10079;BME280;5078;42.544;22.966;2022-11-12T09:19:24;95168.25;;;10.27;83.99
10079;BME280;5078;42.544;22.966;2022-11-12T09:21:53;95173.28;;;10.40;81.97
10079;BME280;5078;42.544;22.966;2022-11-12T09:24:25;95161.41;;;9.86;82.96
10079;BME280;5078;42.544;22.966;2022-11-12T09:26:52;95163.22;;;9.56;83.95
10079;BME280;5078;42.544;22.966;2022-11-12T09:29:25;95167.41;;;9.59;84.79
10079;BME280;5078;42.544;22.966;2022-11-12T09:31:58;95174.94;;;9.54;85.93
10079;BME280;5078;42.544;22.966;2022-11-12T09:34:25;95162.28;;;9.96;84.86
10079;BME280;5078;42.544;22.966;2022-11-12T09:36:54;95163.25;;;10.34;81.70
10079;BME280;5078;42.544;22.966;2022-11-12T09:39:20;95158.66;;;10.36;81.35
10079;BME280;5078;42.544;22.966;2022-11-12T09:41:47;95156.47;;;10.69;79.65
10079;BME280;5078;42.544;22.966;2022-11-12T09:44:16;95152.31;;;10.94;77.02
10079;BME280;5078;42.544;22.966;2022-11-12T09:46:47;95140.41;;;10.98;74.58
10079;BME280;5078;42.544;22.966;2022-11-12T09:49:17;95140.66;;;11.32;72.33
10079;BME280;5078;42.544;22.966;2022-11-12T09:51:49;95154.41;;;10.90;71.43
10079;BME280;5078;42.544;22.966;2022-11-12T09:54:22;95150.53;;;10.85;71.82
10079;BME280;5078;42.544;22.966;2022-11-12T09:56:51;95162.31;;;10.72;72.34
10079;BME280;5078;42.544;22.966;2022-11-12T09:59:21;95156.09;;;10.91;71.87
10079;BME280;5078;42.544;22.966;2022-11-12T10:01:58;95157.88;;;11.28;71.97
10079;BME280;5078;42.544;22.966;2022-11-12T10:04:42;95156.25;;;11.63;68.53
10079;BME280;5078;42.544;22.966;2022-11-12T10:07:15;95152.94;;;11.06;69.06
10079;BME280;5078;42.544;22.966;2022-11-12T10:10:00;95143.09;;;10.88;69.50
10079;BME280;5078;42.544;22.966;2022-11-12T10:12:38;95140.19;;;10.91;70.29
10079;BME280;5078;42.544;22.966;2022-11-12T10:15:35;95142.16;;;10.42;71.41
10079;BME280;5078;42.544;22.966;2022-11-12T10:18:28;95152.63;;;10.05;74.11
10079;BME280;5078;42.544;22.966;2022-11-12T10:21:02;95145.38;;;9.97;74.80
10079;BME280;5078;42.544;22.966;2022-11-12T10:23:37;95145.38;;;9.97;74.37
10079;BME280;5078;42.544;22.966;2022-11-12T10:26:11;95136.44;;;10.08;74.53
10079;BME280;5078;42.544;22.966;2022-11-12T10:28:42;95138.44;;;9.96;75.34
10079;BME280;5078;42.544;22.966;2022-11-12T10:31:13;95139.69;;;9.92;76.03
10079;BME280;5078;42.544;22.966;2022-11-12T10:33:40;95144.28;;;10.00;76.91
10079;BME280;5078;42.544;22.966;2022-11-12T10:36:19;95141.59;;;10.19;75.11
10079;BME280;5078;42.544;22.966;2022-11-12T10:38:49;95135.84;;;10.43;74.43
10079;BME280;5078;42.544;22.966;2022-11-12T10:41:23;95143.66;;;10.54;73.47
10079;BME280;5078;42.544;22.966;2022-11-12T10:43:55;95134.22;;;10.32;72.56
10079;BME280;5078;42.544;22.966;2022-11-12T10:46:24;95143.03;;;10.13;74.50
10079;BME280;5078;42.544;22.966;2022-11-12T10:48:59;95133.97;;;10.06;75.29
10079;BME280;5078;42.544;22.966;2022-11-12T10:51:30;95128.25;;;10.01;76.53
10079;BME280;5078;42.544;22.966;2022-11-12T10:53:57;95131.44;;;10.14;75.98
10079;BME280;5078;42.544;22.966;2022-11-12T10:56:28;95125.72;;;10.29;75.80
10079;BME280;5078;42.544;22.966;2022-11-12T10:59:13;95122.91;;;10.21;76.61
10079;BME280;5078;42.544;22.966;2022-11-12T11:01:41;95131.41;;;10.44;77.03
10079;BME280;5078;42.544;22.966;2022-11-12T11:04:16;95132.41;;;10.13;78.08
10079;BME280;5078;42.544;22.966;2022-11-12T11:06:45;95134.22;;;10.13;77.13
10079;BME280;5078;42.544;22.966;2022-11-12T11:09:16;95129.06;;;10.11;77.26
10079;BME280;5078;42.544;22.966;2022-11-12T11:11:50;95125.03;;;10.07;75.74
10079;BME280;5078;42.544;22.966;2022-11-12T11:14:32;95124.84;;;10.38;75.66
10079;BME280;5078;42.544;22.966;2022-11-12T11:17:02;95125.44;;;10.32;74.68
10079;BME280;5078;42.544;22.966;2022-11-12T11:19:37;95120.00;;;10.33;74.13
10079;BME280;5078;42.544;22.966;2022-11-12T11:22:33;95121.59;;;10.64;73.12
10079;BME280;5078;42.544;22.966;2022-11-12T11:25:23;95106.22;;;10.57;73.15
10079;BME280;5078;42.544;22.966;2022-11-12T11:28:04;95123.34;;;10.73;72.95
10079;BME280;5078;42.544;22.966;2022-11-12T11:30:37;95115.75;;;10.41;74.47
10079;BME280;5078;42.544;22.966;2022-11-12T11:33:33;95113.88;;;10.13;75.59
10079;BME280;5078;42.544;22.966;2022-11-12T11:36:16;95117.91;;;9.98;77.75
10079;BME280;5078;42.544;22.966;2022-11-12T11:38:53;95122.25;;;9.99;77.56
10079;BME280;5078;42.544;22.966;2022-11-12T11:41:39;95117.34;;;10.24;77.96
10079;BME280;5078;42.544;22.966;2022-11-12T11:44:17;95117.19;;;10.15;77.82
10079;BME280;5078;42.544;22.966;2022-11-12T11:46:57;95123.91;;;9.90;78.54
10079;BME280;5078;42.544;22.966;2022-11-12T11:49:46;95122.25;;;9.89;79.55
10079;BME280;5078;42.544;22.966;2022-11-12T11:52:36;95128.66;;;9.77;80.63
10079;BME280;5078;42.544;22.966;2022-11-12T11:55:13;95129.91;;;9.73;81.42
10079;BME280;5078;42.544;22.966;2022-11-12T11:57:51;95135.22;;;9.83;81.40
10079;BME280;5078;42.544;22.966;2022-11-12T12:00:23;95121.97;;;9.73;81.62
10079;BME280;5078;42.544;22.966;2022-11-12T12:03:18;95127.25;;;9.63;82.09
10079;BME280;5078;42.544;22.966;2022-11-12T12:06:01;95116.81;;;9.52;83.32
10079;BME280;5078;42.544;22.966;2022-11-12T12:08:38;95118.06;;;9.58;82.93
10079;BME280;5078;42.544;22.966;2022-11-12T12:11:13;95123.66;;;9.64;83.43
10079;BME280;5078;42.544;22.966;2022-11-12T12:13:53;95123.22;;;9.59;82.94
10079;BME280;5078;42.544;22.966;2022-11-12T12:16:50;95115.00;;;9.82;83.16
10079;BME280;5078;42.544;22.966;2022-11-12T12:19:31;95119.19;;;9.94;81.82
10079;BME280;5078;42.544;22.966;2022-11-12T12:22:02;95127.69;;;9.78;82.14
10079;BME280;5078;42.544;22.966;2022-11-12T12:24:35;95127.84;;;9.86;83.91
10079;BME280;5078;42.544;22.966;2022-11-12T12:27:10;95127.38;;;10.01;83.21
10079;BME280;5078;42.544;22.966;2022-11-12T12:29:41;95113.81;;;10.23;82.24
10079;BME280;5078;42.544;22.966;2022-11-12T12:32:13;95110.34;;;10.42;81.17
10079;BME280;5078;42.544;22.966;2022-11-12T12:34:44;95104.03;;;10.43;80.79
10079;BME280;5078;42.544;22.966;2022-11-12T12:37:23;95101.56;;;10.42;79.65
10079;BME280;5078;42.544;22.966;2022-11-12T12:40:00;95099.03;;;10.40;78.37
10079;BME280;5078;42.544;22.966;2022-11-12T12:42:47;95102.88;;;10.55;77.61
10079;BME280;5078;42.544;22.966;2022-11-12T12:45:35;95107.19;;;10.66;76.72
10079;BME280;5078;42.544;22.966;2022-11-12T12:48:07;95103.19;;;10.52;76.44
10079;BME280;5078;42.544;22.966;2022-11-12T12:50:38;95101.03;;;10.19;76.98
10079;BME280;5078;42.544;22.966;2022-11-12T12:53:16;95096.28;;;10.32;77.65
10079;BME280;5078;42.544;22.966;2022-11-12T12:55:45;95099.91;;;10.31;76.96
10079;BME280;5078;42.544;22.966;2022-11-12T12:58:19;95096.56;;;10.29;79.51
10079;BME280;5078;42.544;22.966;2022-11-12T13:00:51;95091.38;;;10.27;81.49
10079;BME280;5078;42.544;22.966;2022-11-12T13:03:49;95092.91;;;10.20;81.22
10079;BME280;5078;42.544;22.966;2022-11-12T13:06:26;95081.56;;;10.47;81.17
10079;BME280;5078;42.544;22.966;2022-11-12T13:09:03;95083.91;;;10.50;79.78
10079;BME280;5078;42.544;22.966;2022-11-12T13:11:53;95090.22;;;10.87;79.14
10079;BME280;5078;42.544;22.966;2022-11-12T13:15:09;95082.31;;;10.67;79.82
10079;BME280;5078;42.544;22.966;2022-11-12T13:17:48;95086.88;;;10.47;81.31
10079;BME280;5078;42.544;22.966;2022-11-12T13:20:41;95091.25;;;10.39;81.01
10079;BME280;5078;42.544;22.966;2022-11-12T13:23:10;95103.09;;;10.34;81.44